M I D A S
Marine Information and Data Acquisition System
Tripno 2307 of the Zeeleeuw from 2012-05-04 07:47:58 to 2012-05-04 12:19:55
Back to CruiseResearch ActivitiesStationsMapUnderway DataData graphs

EquipmentUnitsComment
TimeDGPSUTC
LatitudeDGPSDM.mWGS84
LongitudeDGPSDM.mWGS84
HeadingGyrodeg 
SOGDGPSknotsSpeed over ground
COGDGPSdegCourse over ground
DepthEcho soundermeters200 kHz
Missing or incorrect values are displayed as -999
Navigation data collected by the RV Zeeleeuw from 2012-05-04 07:44:51 to 2012-05-04 12:28:01
Time Latitude Longitude Heading SOG COG Depth
2012-05-04 07:45:56 51°13.645 2°55.941 107.3 3.9 286 -999
2012-05-04 07:46:56 51°13.677 2°55.835 126 4.6 302 -999
2012-05-04 07:47:56 51°13.721 2°55.742 140.8 4.5 318 -999
2012-05-04 07:48:56 51°13.767 2°55.698 152.6 3.1 335 4.9
2012-05-04 07:49:56 51°13.831 2°55.642 152.3 5.2 332 -999
2012-05-04 07:50:56 51°13.903 2°55.594 169.7 3.7 346 -999
2012-05-04 07:51:56 51°13.953 2°55.596 200.3 2.8 16 -999
2012-05-04 07:52:56 51°13.982 2°55.616 230.2 0.2 312 -999
2012-05-04 07:53:56 51°13.985 2°55.569 292.5 3.2 295 -999
2012-05-04 07:54:56 51°14.049 2°55.498 332 6.6 330 -999
2012-05-04 07:55:56 51°14.172 2°55.386 332.1 9.5 330 -999
2012-05-04 07:56:56 51°14.318 2°55.25 333.2 10.8 331 -999
2012-05-04 07:57:56 51°14.478 2°55.086 329 11.8 327 -999
2012-05-04 07:58:56 51°14.623 2°54.876 309.8 12 302 -999
2012-05-04 07:59:55 51°14.639 2°54.573 258.6 12.2 249 11.1
2012-05-04 08:00:53 51°14.531 2°54.302 234.6 12.7 233 11
2012-05-04 08:01:52 51°14.404 2°54.039 234.3 12.8 235 10.6
2012-05-04 08:02:52 51°14.28 2°53.767 234.9 12.7 232 10.4
2012-05-04 08:03:52 51°14.137 2°53.522 224.7 12.7 224 10.5
2012-05-04 08:04:53 51°13.999 2°53.265 232.1 12.6 235 10.3
2012-05-04 08:05:52 51°13.874 2°53.003 235.9 12.6 234 10.5
2012-05-04 08:06:52 51°13.758 2°52.724 239.2 12.7 238 10.7
2012-05-04 08:07:52 51°13.646 2°52.44 239 12.6 238 11
2012-05-04 08:08:53 51°13.526 2°52.158 235 12.8 234 11.3
2012-05-04 08:09:52 51°13.402 2°51.893 234.9 12.8 235 11.2
2012-05-04 08:10:52 51°13.282 2°51.618 235.3 12.6 231 11.4
2012-05-04 08:11:52 51°13.168 2°51.336 240.8 12.6 239 11.2
2012-05-04 08:12:52 51°13.057 2°51.052 241.1 12.7 240 11.5
2012-05-04 08:13:52 51°12.943 2°50.768 238.4 12.8 239 11.5
2012-05-04 08:14:52 51°12.842 2°50.471 242.6 12.8 240 11.7
2012-05-04 08:15:52 51°12.743 2°50.171 243.3 12.6 241 11.6
2012-05-04 08:16:52 51°12.63 2°49.886 239.7 12.7 239 11.3
2012-05-04 08:17:52 51°12.52 2°49.599 235.9 12.8 237 11.6
2012-05-04 08:18:52 51°12.408 2°49.315 239.5 12.7 241 11.4
2012-05-04 08:19:52 51°12.309 2°49.024 240.4 12.4 238 11.4
2012-05-04 08:20:52 51°12.205 2°48.738 242.4 12.5 240 11.6
2012-05-04 08:21:53 51°12.095 2°48.452 240.3 12.4 237 11.6
2012-05-04 08:22:53 51°11.98 2°48.179 238.5 12.3 235 11.3
2012-05-04 08:23:52 51°11.887 2°47.892 246.1 12.4 244 11.5
2012-05-04 08:24:52 51°11.807 2°47.589 248.4 12.4 247 11.3
2012-05-04 08:25:52 51°11.72 2°47.292 246.1 12.4 247 11.3
2012-05-04 08:26:53 51°11.625 2°46.998 242.9 12.4 240 11.4
2012-05-04 08:27:52 51°11.528 2°46.724 240.2 12 236 11.1
2012-05-04 08:28:52 51°11.429 2°46.448 241 12 240 10.9
2012-05-04 08:29:53 51°11.33 2°46.166 242.3 12 242 10.9
2012-05-04 08:30:53 51°11.246 2°45.878 248.3 12 248 10.8
2012-05-04 08:31:53 51°11.158 2°45.593 243 12 243 10.9
2012-05-04 08:32:52 51°11.071 2°45.315 243.8 11.9 244 10.9
2012-05-04 08:33:52 51°10.987 2°45.03 246.5 11.9 244 11
2012-05-04 08:34:52 51°10.901 2°44.747 247.6 11.8 247 11.2
2012-05-04 08:35:52 51°10.83 2°44.456 250.3 11.8 248 11.1
2012-05-04 08:36:53 51°10.755 2°44.164 247.1 11.8 246 10.7
2012-05-04 08:37:52 51°10.667 2°43.894 242.7 11.6 240 11
2012-05-04 08:38:52 51°10.577 2°43.623 244.6 11.6 245 10.6
2012-05-04 08:39:52 51°10.512 2°43.337 253.7 11.4 252 11
2012-05-04 08:40:52 51°10.455 2°43.051 251.6 11.4 249 11.2
2012-05-04 08:41:52 51°10.389 2°42.768 251.7 11.3 250 11.1
2012-05-04 08:42:53 51°10.332 2°42.477 250.1 11.3 248 11.2
2012-05-04 08:43:52 51°10.237 2°42.226 238.2 11.3 238 11.2
2012-05-04 08:44:52 51°10.123 2°41.988 233.5 11.4 230 11.1
2012-05-04 08:45:52 51°10.014 2°41.748 240.8 11.1 239 11
2012-05-04 08:46:52 51°9.918 2°41.494 238.2 11.1 233 10.9
2012-05-04 08:47:52 51°9.854 2°41.299 258.8 5.1 258 11.2
2012-05-04 08:48:52 51°9.848 2°41.205 267.4 2.8 266 11.4
2012-05-04 08:49:52 51°9.84 2°41.142 255.2 2.1 248 11.3
2012-05-04 08:50:53 51°9.826 2°41.103 252.1 1.4 244 11.5
2012-05-04 08:51:52 51°9.816 2°41.076 254.4 1 237 11.4
2012-05-04 08:52:52 51°9.812 2°41.052 256.9 1.3 256 11.4
2012-05-04 08:53:53 51°9.8 2°40.986 259.5 3.6 258 11.5
2012-05-04 08:54:52 51°9.796 2°40.883 268.4 4.1 271 11.4
2012-05-04 08:55:52 51°9.8 2°40.78 274.1 3.6 278 11.6
2012-05-04 08:56:53 51°9.812 2°40.686 277.9 3.4 282 11.9
2012-05-04 08:57:52 51°9.812 2°40.6 259 3.3 258 12.1
2012-05-04 08:58:53 51°9.79 2°40.521 248.3 3.3 246 11.8
2012-05-04 08:59:52 51°9.765 2°40.44 250 3.5 244 12.1
2012-05-04 09:00:52 51°9.744 2°40.354 253.3 3.5 251 12.2
2012-05-04 09:01:52 51°9.72 2°40.269 247.1 3.5 242 12.3
2012-05-04 09:02:52 51°9.69 2°40.189 243 3.6 238 11.9
2012-05-04 09:03:52 51°9.655 2°40.114 240.5 3.6 233 12.1
2012-05-04 09:04:53 51°9.62 2°40.037 241.9 3.5 238 12.2
2012-05-04 09:05:53 51°9.588 2°39.958 245 3.5 240 12
2012-05-04 09:06:52 51°9.562 2°39.879 247.6 3.5 244 12.1
2012-05-04 09:07:52 51°9.534 2°39.798 245.6 3.5 239 12.2
2012-05-04 09:08:52 51°9.503 2°39.72 243.3 3.5 235 12.1
2012-05-04 09:09:52 51°9.47 2°39.644 242 3.5 235 12
2012-05-04 09:10:52 51°9.437 2°39.569 241.9 3.5 237 12.1
2012-05-04 09:11:52 51°9.406 2°39.493 245.8 3.5 238 12.2
2012-05-04 09:12:52 51°9.378 2°39.414 247 3.4 241 12.1
2012-05-04 09:13:53 51°9.357 2°39.332 261.7 3.3 264 11.9
2012-05-04 09:14:53 51°9.364 2°39.246 275.7 3.4 284 12.3
2012-05-04 09:15:52 51°9.393 2°39.17 299.3 3.6 315 12.8
2012-05-04 09:16:52 51°9.45 2°39.122 324.5 4.2 345 13.1
2012-05-04 09:17:53 51°9.523 2°39.119 350.6 4 14 12.9
2012-05-04 09:18:52 51°9.572 2°39.165 23 3.4 42 13.5
2012-05-04 09:19:52 51°9.601 2°39.242 66.2 3.4 70 13.4
2012-05-04 09:20:52 51°9.609 2°39.331 109.2 3.7 95 13.5
2012-05-04 09:21:52 51°9.583 2°39.411 172 3 140 13.1
2012-05-04 09:22:52 51°9.549 2°39.42 232.2 1.7 215 12.9
2012-05-04 09:23:53 51°9.492 2°39.331 229.9 6.6 223 12.7
2012-05-04 09:24:52 51°9.435 2°39.209 245.7 4.6 243 12.6
2012-05-04 09:25:53 51°9.418 2°39.121 257.5 2.9 257 12.7
2012-05-04 09:26:52 51°9.404 2°39.053 250.1 2.7 249 12.9
2012-05-04 09:27:52 51°9.38 2°38.991 241.8 2.8 230 13
2012-05-04 09:28:52 51°9.348 2°38.937 235 2.9 219 12.9
2012-05-04 09:29:52 51°9.316 2°38.882 241.6 2.8 234 12.6
2012-05-04 09:30:52 51°9.298 2°38.815 256.1 2.7 256 12.6
2012-05-04 09:31:52 51°9.298 2°38.743 268.6 2.8 274 12.8
2012-05-04 09:32:52 51°9.305 2°38.671 269.1 2.8 282 12.6
2012-05-04 09:33:53 51°9.312 2°38.597 270.6 2.8 282 13
2012-05-04 09:34:53 51°9.321 2°38.525 271.8 2.8 282 13.1
2012-05-04 09:35:52 51°9.329 2°38.454 272 2.8 285 13.2
2012-05-04 09:36:52 51°9.336 2°38.382 268.3 2.8 274 13.7
2012-05-04 09:37:52 51°9.339 2°38.31 265.5 2.7 271 13.6
2012-05-04 09:38:52 51°9.342 2°38.238 267.8 2.8 275 13.8
2012-05-04 09:39:52 51°9.349 2°38.166 270.8 2.7 282 13.7
2012-05-04 09:40:53 51°9.356 2°38.092 268.6 2.8 278 14.1
2012-05-04 09:41:52 51°9.36 2°38.019 267.4 2.8 276 14.1
2012-05-04 09:42:52 51°9.363 2°37.944 267.4 2.8 274 14.2
2012-05-04 09:43:52 51°9.367 2°37.869 271.2 2.9 281 14.3
2012-05-04 09:44:52 51°9.391 2°37.805 294.8 2.8 319 14.8
2012-05-04 09:45:52 51°9.436 2°37.773 318.7 3.2 351 14.8
2012-05-04 09:46:52 51°9.495 2°37.781 345.1 3.8 12 15.8
2012-05-04 09:47:52 51°9.559 2°37.815 3.5 4.3 26 16.4
2012-05-04 09:48:53 51°9.624 2°37.887 29.3 4.3 43 16.7
2012-05-04 09:49:52 51°9.664 2°37.967 44.6 3.6 55 17.1
2012-05-04 09:50:53 51°9.693 2°38.045 49.1 3.2 61 17
2012-05-04 09:51:52 51°9.727 2°38.114 20.6 3.7 37 17.4
2012-05-04 09:52:53 51°9.781 2°38.107 298 3.1 312 18
2012-05-04 09:53:53 51°9.763 2°38.011 246.1 6.7 245 18.1
2012-05-04 09:54:52 51°9.715 2°37.782 255.6 10.3 255 18.5
2012-05-04 09:55:53 51°9.648 2°37.523 245.4 10.5 243 18.6
2012-05-04 09:56:52 51°9.575 2°37.277 246.8 10.5 244 19.1
2012-05-04 09:57:52 51°9.506 2°37.025 249 10.4 249 19.2
2012-05-04 09:58:52 51°9.457 2°36.762 252.9 10.4 253 19.3
2012-05-04 09:59:53 51°9.405 2°36.496 253.1 10.4 253 19.1
2012-05-04 10:00:52 51°9.352 2°36.24 249.7 10.3 248 19.6
2012-05-04 10:01:52 51°9.285 2°35.988 246.9 10.4 244 19.6
2012-05-04 10:02:52 51°9.219 2°35.733 248.8 10.5 248 20
2012-05-04 10:03:52 51°9.167 2°35.553 238.3 4.6 236 20
2012-05-04 10:04:52 51°9.144 2°35.471 258 3.3 269 19.9
2012-05-04 10:05:52 51°9.176 2°35.4 308.9 3.6 337 20.2
2012-05-04 10:06:52 51°9.239 2°35.38 328.9 4.1 353 20.1
2012-05-04 10:07:52 51°9.306 2°35.365 324.6 3.9 347 20.5
2012-05-04 10:08:53 51°9.36 2°35.327 300.3 3.2 326 20.6
2012-05-04 10:09:52 51°9.389 2°35.269 275.7 2.7 292 20.9
2012-05-04 10:10:52 51°9.39 2°35.202 248.3 2.6 249 20.5
2012-05-04 10:11:52 51°9.363 2°35.141 237.5 3 230 20.5
2012-05-04 10:12:52 51°9.333 2°35.079 235.6 3 229 20.8
2012-05-04 10:13:53 51°9.298 2°35.021 230.3 3 222 20.6
2012-05-04 10:14:52 51°9.259 2°34.97 229.4 3.1 220 19.8
2012-05-04 10:15:52 51°9.22 2°34.918 230 3.1 220 20.4
2012-05-04 10:16:52 51°9.183 2°34.862 231.9 3.2 226 20.1
2012-05-04 10:17:53 51°9.144 2°34.802 232 3.2 224 19.5
2012-05-04 10:18:52 51°9.103 2°34.755 221.9 3 211 20.2
2012-05-04 10:19:53 51°9.056 2°34.724 208 3.2 190 20.7
2012-05-04 10:20:53 51°8.997 2°34.728 193.6 3.6 176 20
2012-05-04 10:21:53 51°8.936 2°34.738 192.8 3.7 173 20.2
2012-05-04 10:22:52 51°8.879 2°34.733 207.7 3.3 191 20.2
2012-05-04 10:23:52 51°8.834 2°34.7 222.4 3 210 20.6
2012-05-04 10:24:52 51°8.789 2°34.663 217.3 3.1 204 20.3
2012-05-04 10:25:52 51°8.743 2°34.629 221.7 3 216 20.3
2012-05-04 10:26:53 51°8.708 2°34.572 235.5 3 234 20.4
2012-05-04 10:27:52 51°8.686 2°34.506 247.1 2.8 251 20.4
2012-05-04 10:28:53 51°8.682 2°34.43 264.2 2.9 276 20.5
2012-05-04 10:29:52 51°8.698 2°34.356 279.9 3.1 299 20.2
2012-05-04 10:30:53 51°8.738 2°34.289 300.1 3.7 326 20.1
2012-05-04 10:31:52 51°8.799 2°34.247 325.7 4.4 353 20
2012-05-04 10:32:53 51°8.866 2°34.263 357.7 3.9 20 19.5
2012-05-04 10:33:53 51°8.92 2°34.313 24.4 3.4 40 20.2
2012-05-04 10:34:52 51°8.957 2°34.377 49.4 3.3 54 20.1
2012-05-04 10:35:53 51°8.983 2°34.45 77 3 66 19.7
2012-05-04 10:36:53 51°9.001 2°34.525 100.2 3.2 80 19.7
2012-05-04 10:37:53 51°8.987 2°34.605 169.1 2.6 136 19.5
2012-05-04 10:38:52 51°8.955 2°34.606 218.1 2.3 204 19.8
2012-05-04 10:39:53 51°8.911 2°34.573 212 3.3 196 20.2
2012-05-04 10:40:52 51°8.844 2°34.574 190.1 4.4 176 20.2
2012-05-04 10:41:52 51°8.777 2°34.559 211.8 3.5 199 20.4
2012-05-04 10:42:53 51°8.728 2°34.503 227.3 3.7 220 20.5
2012-05-04 10:43:53 51°8.682 2°34.437 232 3.7 228 20.4
2012-05-04 10:44:53 51°8.649 2°34.353 244.1 3.8 242 20.5
2012-05-04 10:45:52 51°8.606 2°34.287 222.3 3.5 217 20.3
2012-05-04 10:46:53 51°8.56 2°34.232 225.8 3.3 218 20.4
2012-05-04 10:47:52 51°8.519 2°34.175 229.6 3.3 224 20.4
2012-05-04 10:48:52 51°8.483 2°34.11 235.8 3.3 235 20.3
2012-05-04 10:49:52 51°8.452 2°34.039 237.6 3.3 235 20.2
2012-05-04 10:50:53 51°8.421 2°33.967 237.3 3.3 233 20.2
2012-05-04 10:51:53 51°8.388 2°33.897 235.5 3.3 233 20.1
2012-05-04 10:52:52 51°8.362 2°33.823 242.4 3.3 239 20.2
2012-05-04 10:53:52 51°8.34 2°33.742 245.7 3.3 247 20.3
2012-05-04 10:54:52 51°8.322 2°33.659 248.3 3.4 252 20.1
2012-05-04 10:55:53 51°8.316 2°33.569 267.3 3.4 277 20.3
2012-05-04 10:56:52 51°8.342 2°33.484 290.9 3.8 309 20
2012-05-04 10:57:52 51°8.395 2°33.417 313.1 4.3 331 20.6
2012-05-04 10:58:52 51°8.465 2°33.371 324.4 4.6 342 19.6
2012-05-04 10:59:52 51°8.541 2°33.339 328.6 4.8 347 19.5
2012-05-04 11:00:53 51°8.624 2°33.326 342.3 5 4 19.7
2012-05-04 11:01:52 51°8.702 2°33.359 10.8 5 26 20.7
2012-05-04 11:02:53 51°8.759 2°33.455 61 5 63 20.9
2012-05-04 11:03:52 51°8.777 2°33.578 102.2 4.9 89 19.7
2012-05-04 11:04:53 51°8.777 2°33.713 103.5 5.2 87 19.6
2012-05-04 11:05:52 51°8.782 2°33.845 105.3 4.8 88 19.4
2012-05-04 11:06:53 51°8.784 2°33.962 108.2 4.1 89 19.4
2012-05-04 11:07:52 51°8.784 2°34.063 112.8 3.8 91 19.3
2012-05-04 11:08:52 51°8.779 2°34.164 121.1 3.9 100 20.1
2012-05-04 11:09:53 51°8.765 2°34.255 131 3.1 104 20.3
2012-05-04 11:10:53 51°8.759 2°34.331 124.5 2.8 93 20.4
2012-05-04 11:11:53 51°8.761 2°34.401 116.8 2.5 85 20.2
2012-05-04 11:12:52 51°8.758 2°34.495 110.1 5 93 20.1
2012-05-04 11:13:53 51°8.772 2°34.651 82.3 6.5 76 20.2
2012-05-04 11:14:52 51°8.82 2°34.903 71.1 12.6 67 20
2012-05-04 11:15:52 51°8.915 2°35.228 69.4 13.9 66 19.7
2012-05-04 11:16:53 51°8.995 2°35.579 75.5 13.9 73 19.3
2012-05-04 11:17:53 51°9.062 2°35.929 72.5 13.9 70 18.6
2012-05-04 11:18:52 51°9.148 2°36.263 70.1 13.8 67 18
2012-05-04 11:19:53 51°9.232 2°36.608 72.6 13.8 71 17.5
2012-05-04 11:20:53 51°9.3 2°36.955 76.5 13.8 74 16.8
2012-05-04 11:21:52 51°9.369 2°37.294 73.6 13.8 71 16
2012-05-04 11:22:52 51°9.44 2°37.637 72 13.5 69 15.1
2012-05-04 11:23:52 51°9.504 2°37.98 78.4 13.5 74 15.1
2012-05-04 11:24:52 51°9.573 2°38.321 71.9 13.5 68 14.4
2012-05-04 11:25:52 51°9.656 2°38.653 73.4 13.6 71 14.5
2012-05-04 11:26:53 51°9.723 2°39 78.5 13.5 76 14.1
2012-05-04 11:27:52 51°9.78 2°39.341 78 13.5 74 13.8
2012-05-04 11:28:52 51°9.852 2°39.68 71.2 13.5 69 13.7
2012-05-04 11:29:53 51°9.922 2°40.026 76.7 13.6 74 13.6
2012-05-04 11:30:52 51°9.991 2°40.362 71 13.6 68 13.5
2012-05-04 11:31:53 51°10.074 2°40.701 70.4 13.5 69 13.3
2012-05-04 11:32:52 51°10.135 2°41.038 78.6 13.4 77 13.3
2012-05-04 11:33:52 51°10.204 2°41.375 69.9 13.4 68 13
2012-05-04 11:34:53 51°10.271 2°41.717 77.8 13.4 77 12.9
2012-05-04 11:35:53 51°10.35 2°42.045 64.9 13.3 63 12.8
2012-05-04 11:36:53 51°10.452 2°42.359 63.8 13.3 64 12.9
2012-05-04 11:37:52 51°10.534 2°42.678 71.9 13.2 68 12.7
2012-05-04 11:38:53 51°10.616 2°43.009 68.3 13.2 65 12.8
2012-05-04 11:39:52 51°10.714 2°43.315 64.8 13.2 64 12.9
2012-05-04 11:40:52 51°10.793 2°43.641 72 13.2 71 13.2
2012-05-04 11:41:53 51°10.874 2°43.971 72.1 13.2 69 13.1
2012-05-04 11:42:53 51°10.961 2°44.293 65.4 13.2 63 13.3
2012-05-04 11:43:53 51°11.072 2°44.595 60.9 13.2 60 13.9
2012-05-04 11:44:52 51°11.179 2°44.894 61.7 13.2 60 13.8
2012-05-04 11:45:52 51°11.282 2°45.204 67.7 13.3 67 14.3
2012-05-04 11:46:53 51°11.378 2°45.527 63.5 13.3 61 14.2
2012-05-04 11:47:53 51°11.489 2°45.831 62.7 13.3 59 14.7
2012-05-04 11:48:52 51°11.596 2°46.134 66.5 13.4 66 15.2
2012-05-04 11:49:53 51°11.69 2°46.458 68.3 13.2 65 15
2012-05-04 11:50:52 51°11.8 2°46.752 59.5 13.1 58 15
2012-05-04 11:51:52 51°11.888 2°47.067 73.3 13.1 72 15.2
2012-05-04 11:52:52 51°11.962 2°47.394 72.8 13.1 70 14.9
2012-05-04 11:53:53 51°12.049 2°47.721 66.8 13.2 64 14.5
2012-05-04 11:54:53 51°12.15 2°48.032 64.9 13.1 63 14.5
2012-05-04 11:55:52 51°12.239 2°48.345 70.6 13.3 68 14.3
2012-05-04 11:56:52 51°12.327 2°48.668 67.1 13.3 65 14.2
2012-05-04 11:57:52 51°12.406 2°48.997 72.1 13.3 70 13.6
2012-05-04 11:58:53 51°12.507 2°49.316 61.9 13.3 59 13.5
2012-05-04 11:59:52 51°12.611 2°49.62 66.1 13.4 62 13.5
2012-05-04 12:00:52 51°12.724 2°49.924 59 13.3 57 13.6
2012-05-04 12:01:52 51°12.842 2°50.222 60.6 13.3 59 13.4
2012-05-04 12:02:52 51°12.94 2°50.539 68.6 13.3 65 13.6
2012-05-04 12:03:53 51°13.037 2°50.862 67 13.3 65 13.1
2012-05-04 12:04:52 51°13.143 2°51.162 59.8 13.3 58 13.5
2012-05-04 12:05:53 51°13.265 2°51.464 60.4 13.3 58 13
2012-05-04 12:06:52 51°13.378 2°51.76 59.7 13.3 59 13.2
2012-05-04 12:07:53 51°13.492 2°52.068 62 13.3 59 13.1
2012-05-04 12:08:52 51°13.605 2°52.367 60.4 13.4 58 12.8
2012-05-04 12:09:53 51°13.725 2°52.676 60.6 13.5 58 12.6
2012-05-04 12:10:52 51°13.838 2°52.982 62.4 13.6 60 12.3
2012-05-04 12:11:53 51°13.956 2°53.294 60.7 13.6 57 12.3
2012-05-04 12:12:52 51°14.076 2°53.59 57 13.4 55 11.8
2012-05-04 12:13:52 51°14.206 2°53.882 56.8 13.5 54 12.1
2012-05-04 12:14:53 51°14.349 2°54.166 54.1 13.5 52 12.1
2012-05-04 12:15:52 51°14.486 2°54.444 53 13.6 50 13.1
2012-05-04 12:16:53 51°14.62 2°54.739 70.1 13.2 71 13.8
2012-05-04 12:17:52 51°14.537 2°54.995 143.6 11.7 140 13.7
2012-05-04 12:18:56 51°14.366 2°55.181 147.4 11.7 146 -999
2012-05-04 12:19:56 51°14.218 2°55.33 149.1 9.9 149 -999
2012-05-04 12:20:56 51°14.077 2°55.444 155.2 8.9 155 -999
2012-05-04 12:21:56 51°13.954 2°55.535 156.2 7.5 155 -999
2012-05-04 12:22:56 51°13.845 2°55.616 154.9 7 153 -999
2012-05-04 12:23:56 51°13.759 2°55.712 139.6 5.8 138 -999
2012-05-04 12:24:56 51°13.696 2°55.822 129.9 5.6 128 -999
2012-05-04 12:25:56 51°13.653 2°55.931 116.8 4.1 115 -999
2012-05-04 12:26:56 51°13.637 2°56.008 102.3 1.7 103 -999
2012-05-04 12:27:56 51°13.636 2°56.018 119.6 0.1 60 -999